Buoy 13526

sailwx.info

Track history (hours):
 
Tides and Currents Weather Stations Pressure Air Temp Water Temp Dewpoint Dewpoint Depression Visibility Wind Speed Wind Dir Waves Ship Positions

Drifting buoy 13526

Last reported at 2015-Jul-31 12:02 UTC. Time now 2015-Jul-31 17:26 UTC.
Position N 26°34' W 048°09'.

Water temperature 28.1 ° C

Date/timePositionNaut miles runAvg speedWind from/ knotsBaromVisibWave heightAir tempDewpointWater temp
2015-Jul-31 12:02N 26°34' W 048°09'112.0 28.1
2015-Jul-31 11:57N 26°35' W 048°09'0 0.0 28.1
2015-Jul-31 11:06N 26°35' W 048°09'1 0.5 28.1
2015-Jul-31 09:27N 26°34' W 048°09'0 1.0 28.1
2015-Jul-31 09:01N 26°34' W 048°09'0 3.4 28.1
2015-Jul-31 08:53N 26°33' W 048°08'0 0.0 28.1
2015-Jul-31 07:59N 26°33' W 048°08'0 0.3 28.1
2015-Jul-31 07:13N 26°33' W 048°08'2 0.3 28.1
2015-Jul-31 02:02N 26°35' W 048°07'1 0.2 28.2
2015-Jul-30 22:46N 26°35' W 048°07'0 0.1 28.5
2015-Jul-30 18:08N 26°36' W 048°07'0 0.0 28.7
2015-Jul-30 14:49N 26°36' W 048°07'0 0.0 28.3
2015-Jul-30 14:08N 26°36' W 048°07'0 0.0 28.2
2015-Jul-30 14:05N 26°36' W 048°07'1 3.5 28.2
2015-Jul-30 13:55N 26°36' W 048°08'1 0.2 28.2
2015-Jul-30 10:07N 26°37' W 048°07'0 0.4 28.1
2015-Jul-30 09:09N 26°37' W 048°08'0 6.4 28.1
2015-Jul-30 09:06N 26°36' W 048°07'1 0.2 28.1
2015-Jul-30 05:05N 26°36' W 048°06'113.2 28.2
2015-Jul-30 04:59N 26°37' W 048°05'1 0.2 28.2
2015-Jul-30 00:47N 26°38' W 048°06'0 0.7 28.4
2015-Jul-30 00:03N 26°38' W 048°06'0 2.6 28.5
2015-Jul-29 23:54N 26°38' W 048°06'0 0.2 28.5
2015-Jul-29 23:03N 26°38' W 048°06'1 9.0 28.5
2015-Jul-29 22:58N 26°39' W 048°06'1 0.3 28.5
2015-Jul-29 20:04N 26°39' W 048°07'0 0.1 28.6
2015-Jul-29 19:05N 26°39' W 048°07'1 0.1 28.7
2015-Jul-29 07:09N 26°39' W 048°05'0 0.0 28.1
2015-Jul-29 07:08N 26°39' W 048°05'0 2.4 28.1
2015-Jul-29 07:06N 26°39' W 048°05'0 0.8 28.1
2015-Jul-29 07:00N 26°39' W 048°05'0 0.3 28.1
2015-Jul-29 05:16N 26°39' W 048°05'111.1 28.2
2015-Jul-29 05:08N 26°41' W 048°05'0 0.0 28.2
2015-Jul-29 02:01N 26°41' W 048°05'0 0.5 28.2
2015-Jul-29 01:03N 26°41' W 048°05'1 0.3 28.3
2015-Jul-28 20:54N 26°42' W 048°06'0 0.3 28.5
2015-Jul-28 19:51N 26°41' W 048°06'0 0.1 28.7
2015-Jul-28 15:06N 26°41' W 048°06'0 0.0 28.9
2015-Jul-28 14:46N 26°41' W 048°06'0 0.4 28.7
2015-Jul-28 13:54N 26°41' W 048°06'0 0.3 28.2
2015-Jul-28 12:07N 26°41' W 048°05'114.7 28.1
2015-Jul-28 12:04N 26°41' W 048°05'0 0.0 28.1
2015-Jul-28 10:53N 26°41' W 048°05'0 0.1 28.1
2015-Jul-28 09:14N 26°41' W 048°04'0 0.2 28.1
2015-Jul-28 07:54N 26°41' W 048°04'1 0.8 28.1
2015-Jul-28 07:08N 26°42' W 048°04'2 0.3 28.1
2015-Jul-28 00:43N 26°44' W 048°03'0 0.4 28.2
2015-Jul-27 23:51N 26°44' W 048°03'0 0.0 28.2
2015-Jul-27 23:46N 26°44' W 048°03'0 0.5 28.2
2015-Jul-27 23:03N 26°44' W 048°03'1 5.9 28.2
2015-Jul-27 22:54N 26°44' W 048°04'0 0.1 28.2
2015-Jul-27 21:08N 26°44' W 048°04'0 0.0 28.4
2015-Jul-27 21:05N 26°44' W 048°04'0 1.8 28.4
2015-Jul-27 20:55N 26°44' W 048°04'2 0.5 28.4
2015-Jul-27 17:03N 26°44' W 048°05'0 0.1 28.4
2015-Jul-27 11:47N 26°44' W 048°05'0 0.1 28.0
2015-Jul-27 08:02N 26°43' W 048°05'113.2 28.0
2015-Jul-27 07:59N 26°43' W 048°04'3 0.6 28.0
2015-Jul-27 03:55N 26°45' W 048°04'0 0.0
2015-Jul-27 01:49N 26°45' W 048°04'0 0.0 28.2
2015-Jul-27 01:46N 26°45' W 048°04'0 0.6 28.2
2015-Jul-27 00:59N 26°46' W 048°04'0 0.1 28.2
2015-Jul-27 00:08N 26°46' W 048°04'0 0.2 28.2
2015-Jul-26 23:22N 26°46' W 048°04'1 4.5 28.2
2015-Jul-26 23:14N 26°46' W 048°04'0 0.0 28.2
2015-Jul-26 22:25N 26°46' W 048°04'0 0.2 28.3
2015-Jul-26 21:21N 26°47' W 048°04'0 0.2 28.5
2015-Jul-26 21:01N 26°47' W 048°04'0 0.3 28.6
2015-Jul-26 19:40N 26°47' W 048°05'0 0.0 28.7
2015-Jul-26 18:51N 26°47' W 048°05'0 0.3 28.7
2015-Jul-26 17:14N 26°47' W 048°04'0 0.0 28.6
2015-Jul-26 17:09N 26°47' W 048°04'0 0.2 28.6
2015-Jul-26 15:31N 26°47' W 048°05'0 0.3 28.3
2015-Jul-26 14:34N 26°46' W 048°05'1 0.7 28.2
2015-Jul-26 13:47N 26°47' W 048°05'0 0.2 28.2
2015-Jul-26 12:47N 26°47' W 048°05'0 0.0 28.0
2015-Jul-26 12:44N 26°47' W 048°05'0 0.0 28.0
2015-Jul-26 12:09N 26°47' W 048°05'0 0.0 28.0
2015-Jul-26 12:06N 26°47' W 048°05'114.2 28.0
2015-Jul-26 12:03N 26°48' W 048°05'0 0.0 28.0
2015-Jul-26 11:07N 26°48' W 048°05'0 0.0 27.9
2015-Jul-26 10:21N 26°48' W 048°05'0 0.5 27.9
2015-Jul-26 10:06N 26°48' W 048°05'0 1.1 28.0
2015-Jul-26 09:54N 26°48' W 048°05'0 6.5 28.0
2015-Jul-26 09:51N 26°48' W 048°05'0 0.1 28.0
2015-Jul-26 08:16N 26°48' W 048°05'0 0.5 28.0
2015-Jul-26 07:33N 26°47' W 048°05'1 0.6 28.1
2015-Jul-26 05:49N 26°48' W 048°04'0 0.0 28.2
2015-Jul-26 04:09N 26°48' W 048°04'1 0.4 28.2
2015-Jul-26 02:06N 26°49' W 048°04'0 0.0 28.3
2015-Jul-26 01:25N 26°49' W 048°04'1 0.3 28.4
2015-Jul-25 22:50N 26°50' W 048°04'1 0.3 28.5
2015-Jul-25 19:52N 26°51' W 048°05'0 0.0 28.9
2015-Jul-25 19:03N 26°51' W 048°05'0 0.0 28.8
2015-Jul-25 18:08N 26°51' W 048°05'0 5.6 28.7
2015-Jul-25 18:05N 26°51' W 048°05'1 0.2 28.7
2015-Jul-25 14:52N 26°51' W 048°05'0 0.0 28.1
2015-Jul-25 14:09N 26°51' W 048°05'1 4.9 28.1
2015-Jul-25 14:01N 26°52' W 048°05'1 0.2 28.1
2015-Jul-25 10:51N 26°53' W 048°05'0 0.3 27.8
2015-Jul-25 10:08N 26°52' W 048°05'0 0.4 27.8
2015-Jul-25 09:07N 26°53' W 048°05'0 0.4 27.8
2015-Jul-25 08:27N 26°53' W 048°05'0 0.6 27.8
2015-Jul-25 07:41N 26°53' W 048°05'0 2.0 27.9
2015-Jul-25 07:35N 26°53' W 048°05'1 1.2 27.9
2015-Jul-25 07:08N 26°53' W 048°05'0 0.0 27.9
2015-Jul-25 06:07N 26°53' W 048°05'0 0.4 27.9
2015-Jul-25 05:59N 26°53' W 048°05'0 3.6 27.9
2015-Jul-25 05:55N 26°53' W 048°05'0 0.0 27.9
2015-Jul-25 04:23N 26°53' W 048°05'0 1.1 27.9
2015-Jul-25 04:20N 26°53' W 048°05'1 0.2 27.9
2015-Jul-25 00:51N 26°54' W 048°05'0 0.2 28.0
2015-Jul-25 00:05N 26°54' W 048°05'0 1.6 28.0
2015-Jul-25 00:02N 26°54' W 048°05'1 0.8 28.0
2015-Jul-24 23:05N 26°55' W 048°05'1 0.6 28.1
2015-Jul-24 22:06N 26°55' W 048°04'1 0.3 28.2
2015-Jul-24 20:03N 26°55' W 048°05'0 0.0 28.3
2015-Jul-24 18:16N 26°55' W 048°05'0 0.1 28.3
2015-Jul-24 15:55N 26°55' W 048°05'4 0.2 28.1
2015-Jul-23 20:55N 26°59' W 048°03'1 0.8 28.2
2015-Jul-23 20:15N 26°59' W 048°02'0 0.4 28.3
2015-Jul-23 19:16N 26°59' W 048°02'0 0.1 28.4
2015-Jul-23 16:07N 26°59' W 048°03'1 0.9 28.3
2015-Jul-23 14:49N 26°59' W 048°01'0 0.0 28.2
2015-Jul-23 13:55N 26°59' W 048°01'0 0.6 28.1
2015-Jul-23 13:05N 26°59' W 048°01'0 1.6 28.0
2015-Jul-23 13:02N 26°59' W 048°01'0 0.5 28.0
2015-Jul-23 12:08N 26°59' W 048°01'1 0.3 27.9
2015-Jul-23 08:38N 26°59' W 047°60'0 0.6 27.9
2015-Jul-23 07:55N 26°60' W 048°00'2 0.3 28.0
2015-Jul-23 00:49N 27°02' W 047°60'0 0.0 28.4
2015-Jul-22 23:53N 27°02' W 047°60'0 0.0 28.5
2015-Jul-22 23:50N 27°02' W 047°60'1 0.9 28.5
2015-Jul-22 23:07N 27°02' W 048°00'1 0.9 28.7
2015-Jul-22 22:03N 27°02' W 047°59'1 0.1 28.8
2015-Jul-22 17:59N 27°03' W 047°60'0 0.0 28.7
2015-Jul-22 17:55N 27°03' W 047°60'1 0.1
2015-Jul-22 11:51N 27°02' W 047°59'0 0.2 27.9
2015-Jul-22 10:45N 27°02' W 047°59'0 0.6 27.9
2015-Jul-22 10:05N 27°02' W 047°59'1 0.5 27.8
2015-Jul-22 09:01N 27°02' W 047°59'0 5.8 27.8
2015-Jul-22 08:58N 27°03' W 047°59'1 0.3 27.8
2015-Jul-22 04:54N 27°04' W 047°58'1 0.2 28.0
2015-Jul-22 01:53N 27°04' W 047°59'0 1.2 28.2
2015-Jul-22 01:49N 27°04' W 047°59'0 0.5 28.2
2015-Jul-22 01:07N 27°05' W 047°59'0 4.2 28.2
2015-Jul-22 01:03N 27°05' W 047°59'0 0.2 28.2
2015-Jul-21 21:54N 27°05' W 047°59'1 0.3 28.5
2015-Jul-21 20:08N 27°05' W 047°60'0 0.0 29.0
2015-Jul-21 20:07N 27°05' W 047°60'0 2.9 29.0
2015-Jul-21 20:02N 27°06' W 047°60'0 0.0 29.0
2015-Jul-21 18:55N 27°06' W 047°60'0 0.3 28.7
2015-Jul-21 18:09N 27°06' W 047°59'1 0.3 28.7
2015-Jul-21 13:54N 27°05' W 048°00'0 3.4 27.9
2015-Jul-21 13:51N 27°05' W 048°00'0 0.2 27.9
2015-Jul-21 12:08N 27°05' W 048°00'   27.7
Track history (hours):
 
Tides and Currents Weather Stations Pressure Air Temp Water Temp Dewpoint Dewpoint Depression Visibility Wind Speed Wind Dir Waves Ship Positions

Drifting buoy 13526

Last reported at 2015-Jul-31 12:02 UTC. Time now 2015-Jul-31 17:26 UTC.
Position N 26°34' W 048°09'.

Water temperature 28.1 ° C

Date/timePositionNaut miles runAvg speedWind from/ knotsBaromVisibWave heightAir tempDewpointWater temp
2015-Jul-31 12:02N 26°34' W 048°09'112.0 28.1
2015-Jul-31 11:57N 26°35' W 048°09'0 0.0 28.1
2015-Jul-31 11:06N 26°35' W 048°09'1 0.5 28.1
2015-Jul-31 09:27N 26°34' W 048°09'0 1.0 28.1
2015-Jul-31 09:01N 26°34' W 048°09'0 3.4 28.1
2015-Jul-31 08:53N 26°33' W 048°08'0 0.0 28.1
2015-Jul-31 07:59N 26°33' W 048°08'0 0.3 28.1
2015-Jul-31 07:13N 26°33' W 048°08'2 0.3 28.1
2015-Jul-31 02:02N 26°35' W 048°07'1 0.2 28.2
2015-Jul-30 22:46N 26°35' W 048°07'0 0.1 28.5
2015-Jul-30 18:08N 26°36' W 048°07'0 0.0 28.7
2015-Jul-30 14:49N 26°36' W 048°07'0 0.0 28.3
2015-Jul-30 14:08N 26°36' W 048°07'0 0.0 28.2
2015-Jul-30 14:05N 26°36' W 048°07'1 3.5 28.2
2015-Jul-30 13:55N 26°36' W 048°08'1 0.2 28.2
2015-Jul-30 10:07N 26°37' W 048°07'0 0.4 28.1
2015-Jul-30 09:09N 26°37' W 048°08'0 6.4 28.1
2015-Jul-30 09:06N 26°36' W 048°07'1 0.2 28.1
2015-Jul-30 05:05N 26°36' W 048°06'113.2 28.2
2015-Jul-30 04:59N 26°37' W 048°05'1 0.2 28.2
2015-Jul-30 00:47N 26°38' W 048°06'0 0.7 28.4
2015-Jul-30 00:03N 26°38' W 048°06'0 2.6 28.5
2015-Jul-29 23:54N 26°38' W 048°06'0 0.2 28.5
2015-Jul-29 23:03N 26°38' W 048°06'1 9.0 28.5
2015-Jul-29 22:58N 26°39' W 048°06'1 0.3 28.5
2015-Jul-29 20:04N 26°39' W 048°07'0 0.1 28.6
2015-Jul-29 19:05N 26°39' W 048°07'1 0.1 28.7
2015-Jul-29 07:09N 26°39' W 048°05'0 0.0 28.1
2015-Jul-29 07:08N 26°39' W 048°05'0 2.4 28.1
2015-Jul-29 07:06N 26°39' W 048°05'0 0.8 28.1
2015-Jul-29 07:00N 26°39' W 048°05'0 0.3 28.1
2015-Jul-29 05:16N 26°39' W 048°05'111.1 28.2
2015-Jul-29 05:08N 26°41' W 048°05'0 0.0 28.2
2015-Jul-29 02:01N 26°41' W 048°05'0 0.5 28.2
2015-Jul-29 01:03N 26°41' W 048°05'1 0.3 28.3
2015-Jul-28 20:54N 26°42' W 048°06'0 0.3 28.5
2015-Jul-28 19:51N 26°41' W 048°06'0 0.1 28.7
2015-Jul-28 15:06N 26°41' W 048°06'0 0.0 28.9
2015-Jul-28 14:46N 26°41' W 048°06'0 0.4 28.7
2015-Jul-28 13:54N 26°41' W 048°06'0 0.3 28.2
2015-Jul-28 12:07N 26°41' W 048°05'114.7 28.1
2015-Jul-28 12:04N 26°41' W 048°05'0 0.0 28.1
2015-Jul-28 10:53N 26°41' W 048°05'0 0.1 28.1
2015-Jul-28 09:14N 26°41' W 048°04'0 0.2 28.1
2015-Jul-28 07:54N 26°41' W 048°04'1 0.8 28.1
2015-Jul-28 07:08N 26°42' W 048°04'2 0.3 28.1
2015-Jul-28 00:43N 26°44' W 048°03'0 0.4 28.2
2015-Jul-27 23:51N 26°44' W 048°03'0 0.0 28.2
2015-Jul-27 23:46N 26°44' W 048°03'0 0.5 28.2
2015-Jul-27 23:03N 26°44' W 048°03'1 5.9 28.2
2015-Jul-27 22:54N 26°44' W 048°04'0 0.1 28.2
2015-Jul-27 21:08N 26°44' W 048°04'0 0.0 28.4
2015-Jul-27 21:05N 26°44' W 048°04'0 1.8 28.4
2015-Jul-27 20:55N 26°44' W 048°04'2 0.5 28.4
2015-Jul-27 17:03N 26°44' W 048°05'0 0.1 28.4
2015-Jul-27 11:47N 26°44' W 048°05'0 0.1 28.0
2015-Jul-27 08:02N 26°43' W 048°05'113.2 28.0
2015-Jul-27 07:59N 26°43' W 048°04'3 0.6 28.0
2015-Jul-27 03:55N 26°45' W 048°04'0 0.0
2015-Jul-27 01:49N 26°45' W 048°04'0 0.0 28.2
2015-Jul-27 01:46N 26°45' W 048°04'0 0.6 28.2
2015-Jul-27 00:59N 26°46' W 048°04'0 0.1 28.2
2015-Jul-27 00:08N 26°46' W 048°04'0 0.2 28.2
2015-Jul-26 23:22N 26°46' W 048°04'1 4.5 28.2
2015-Jul-26 23:14N 26°46' W 048°04'0 0.0 28.2
2015-Jul-26 22:25N 26°46' W 048°04'0 0.2 28.3
2015-Jul-26 21:21N 26°47' W 048°04'0 0.2 28.5
2015-Jul-26 21:01N 26°47' W 048°04'0 0.3 28.6
2015-Jul-26 19:40N 26°47' W 048°05'0 0.0 28.7
2015-Jul-26 18:51N 26°47' W 048°05'0 0.3 28.7
2015-Jul-26 17:14N 26°47' W 048°04'0 0.0 28.6
2015-Jul-26 17:09N 26°47' W 048°04'0 0.2 28.6
2015-Jul-26 15:31N 26°47' W 048°05'0 0.3 28.3
2015-Jul-26 14:34N 26°46' W 048°05'1 0.7 28.2
2015-Jul-26 13:47N 26°47' W 048°05'0 0.2 28.2
2015-Jul-26 12:47N 26°47' W 048°05'0 0.0 28.0
2015-Jul-26 12:44N 26°47' W 048°05'0 0.0 28.0
2015-Jul-26 12:09N 26°47' W 048°05'0 0.0 28.0
2015-Jul-26 12:06N 26°47' W 048°05'114.2 28.0
2015-Jul-26 12:03N 26°48' W 048°05'0 0.0 28.0
2015-Jul-26 11:07N 26°48' W 048°05'0 0.0 27.9
2015-Jul-26 10:21N 26°48' W 048°05'0 0.5 27.9
2015-Jul-26 10:06N 26°48' W 048°05'0 1.1 28.0
2015-Jul-26 09:54N 26°48' W 048°05'0 6.5 28.0
2015-Jul-26 09:51N 26°48' W 048°05'0 0.1 28.0
2015-Jul-26 08:16N 26°48' W 048°05'0 0.5 28.0
2015-Jul-26 07:33N 26°47' W 048°05'1 0.6 28.1
2015-Jul-26 05:49N 26°48' W 048°04'0 0.0 28.2
2015-Jul-26 04:09N 26°48' W 048°04'1 0.4 28.2
2015-Jul-26 02:06N 26°49' W 048°04'0 0.0 28.3
2015-Jul-26 01:25N 26°49' W 048°04'1 0.3 28.4
2015-Jul-25 22:50N 26°50' W 048°04'1 0.3 28.5
2015-Jul-25 19:52N 26°51' W 048°05'0 0.0 28.9
2015-Jul-25 19:03N 26°51' W 048°05'0 0.0 28.8
2015-Jul-25 18:08N 26°51' W 048°05'0 5.6 28.7
2015-Jul-25 18:05N 26°51' W 048°05'1 0.2 28.7
2015-Jul-25 14:52N 26°51' W 048°05'0 0.0 28.1
2015-Jul-25 14:09N 26°51' W 048°05'1 4.9 28.1
2015-Jul-25 14:01N 26°52' W 048°05'1 0.2 28.1
2015-Jul-25 10:51N 26°53' W 048°05'0 0.3 27.8
2015-Jul-25 10:08N 26°52' W 048°05'0 0.4 27.8
2015-Jul-25 09:07N 26°53' W 048°05'0 0.4 27.8
2015-Jul-25 08:27N 26°53' W 048°05'0 0.6 27.8
2015-Jul-25 07:41N 26°53' W 048°05'0 2.0 27.9
2015-Jul-25 07:35N 26°53' W 048°05'1 1.2 27.9
2015-Jul-25 07:08N 26°53' W 048°05'0 0.0 27.9
2015-Jul-25 06:07N 26°53' W 048°05'0 0.4 27.9
2015-Jul-25 05:59N 26°53' W 048°05'0 3.6 27.9
2015-Jul-25 05:55N 26°53' W 048°05'0 0.0 27.9
2015-Jul-25 04:23N 26°53' W 048°05'0 1.1 27.9
2015-Jul-25 04:20N 26°53' W 048°05'1 0.2 27.9
2015-Jul-25 00:51N 26°54' W 048°05'0 0.2 28.0
2015-Jul-25 00:05N 26°54' W 048°05'0 1.6 28.0
2015-Jul-25 00:02N 26°54' W 048°05'1 0.8 28.0
2015-Jul-24 23:05N 26°55' W 048°05'1 0.6 28.1
2015-Jul-24 22:06N 26°55' W 048°04'1 0.3 28.2
2015-Jul-24 20:03N 26°55' W 048°05'0 0.0 28.3
2015-Jul-24 18:16N 26°55' W 048°05'0 0.1 28.3
2015-Jul-24 15:55N 26°55' W 048°05'4 0.2 28.1
2015-Jul-23 20:55N 26°59' W 048°03'1 0.8 28.2
2015-Jul-23 20:15N 26°59' W 048°02'0 0.4 28.3
2015-Jul-23 19:16N 26°59' W 048°02'0 0.1 28.4
2015-Jul-23 16:07N 26°59' W 048°03'1 0.9 28.3
2015-Jul-23 14:49N 26°59' W 048°01'0 0.0 28.2
2015-Jul-23 13:55N 26°59' W 048°01'0 0.6 28.1
2015-Jul-23 13:05N 26°59' W 048°01'0 1.6 28.0
2015-Jul-23 13:02N 26°59' W 048°01'0 0.5 28.0
2015-Jul-23 12:08N 26°59' W 048°01'1 0.3 27.9
2015-Jul-23 08:38N 26°59' W 047°60'0 0.6 27.9
2015-Jul-23 07:55N 26°60' W 048°00'2 0.3 28.0
2015-Jul-23 00:49N 27°02' W 047°60'0 0.0 28.4
2015-Jul-22 23:53N 27°02' W 047°60'0 0.0 28.5
2015-Jul-22 23:50N 27°02' W 047°60'1 0.9 28.5
2015-Jul-22 23:07N 27°02' W 048°00'1 0.9 28.7
2015-Jul-22 22:03N 27°02' W 047°59'1 0.1 28.8
2015-Jul-22 17:59N 27°03' W 047°60'0 0.0 28.7
2015-Jul-22 17:55N 27°03' W 047°60'1 0.1
2015-Jul-22 11:51N 27°02' W 047°59'0 0.2 27.9
2015-Jul-22 10:45N 27°02' W 047°59'0 0.6 27.9
2015-Jul-22 10:05N 27°02' W 047°59'1 0.5 27.8
2015-Jul-22 09:01N 27°02' W 047°59'0 5.8 27.8
2015-Jul-22 08:58N 27°03' W 047°59'1 0.3 27.8
2015-Jul-22 04:54N 27°04' W 047°58'1 0.2 28.0
2015-Jul-22 01:53N 27°04' W 047°59'0 1.2 28.2
2015-Jul-22 01:49N 27°04' W 047°59'0 0.5 28.2
2015-Jul-22 01:07N 27°05' W 047°59'0 4.2 28.2
2015-Jul-22 01:03N 27°05' W 047°59'0 0.2 28.2
2015-Jul-21 21:54N 27°05' W 047°59'1 0.3 28.5
2015-Jul-21 20:08N 27°05' W 047°60'0 0.0 29.0
2015-Jul-21 20:07N 27°05' W 047°60'0 2.9 29.0
2015-Jul-21 20:02N 27°06' W 047°60'0 0.0 29.0
2015-Jul-21 18:55N 27°06' W 047°60'0 0.3 28.7
2015-Jul-21 18:09N 27°06' W 047°59'1 0.3 28.7
2015-Jul-21 13:54N 27°05' W 048°00'0 3.4 27.9
2015-Jul-21 13:51N 27°05' W 048°00'0 0.2 27.9
2015-Jul-21 12:08N 27°05' W 048°00'   27.7

Dump ship's entire track history